sensor_id;sensor_type;location;lat;lon;timestamp;pressure;altitude;pressure_sealevel;temperature;humidity
32456;BME280;18912;43.270;27.942;2023-04-02T00:01:18;96827.47;;;14.67;61.75
32456;BME280;18912;43.270;27.942;2023-04-02T00:06:32;96821.88;;;14.94;60.50
32456;BME280;18912;43.270;27.942;2023-04-02T00:09:01;96827.47;;;14.67;61.03
32456;BME280;18912;43.270;27.942;2023-04-02T00:11:37;96827.94;;;14.54;61.16
32456;BME280;18912;43.270;27.942;2023-04-02T00:14:32;96834.88;;;14.77;60.09
32456;BME280;18912;43.270;27.942;2023-04-02T00:17:02;96832.34;;;14.65;60.25
32456;BME280;18912;43.270;27.942;2023-04-02T00:22:23;96828.69;;;14.45;59.98
32456;BME280;18912;43.270;27.942;2023-04-02T00:24:51;96831.16;;;14.51;59.54
32456;BME280;18912;43.270;27.942;2023-04-02T00:27:18;96824.16;;;14.19;60.47
32456;BME280;18912;43.270;27.942;2023-04-02T00:29:52;96819.81;;;14.59;59.21
32456;BME280;18912;43.270;27.942;2023-04-02T00:32:24;96831.94;;;14.10;60.80
32456;BME280;18912;43.270;27.942;2023-04-02T00:34:50;96831.47;;;14.18;60.41
32456;BME280;18912;43.270;27.942;2023-04-02T00:37:19;96823.91;;;14.25;60.15
32456;BME280;18912;43.270;27.942;2023-04-02T00:39:50;96829.88;;;13.90;61.71
32456;BME280;18912;43.270;27.942;2023-04-02T00:42:17;96833.38;;;13.86;62.11
32456;BME280;18912;43.270;27.942;2023-04-02T00:44:44;96842.41;;;13.65;62.42
32456;BME280;18912;43.270;27.942;2023-04-02T00:47:20;96834.69;;;13.78;61.87
32456;BME280;18912;43.270;27.942;2023-04-02T00:49:50;96827.94;;;13.54;62.47
32456;BME280;18912;43.270;27.942;2023-04-02T00:52:22;96844.03;;;14.24;60.62
32456;BME280;18912;43.270;27.942;2023-04-02T00:55:16;96846.13;;;13.85;61.80
32456;BME280;18912;43.270;27.942;2023-04-02T00:57:44;96805.50;;;13.37;62.75
32456;BME280;18912;43.270;27.942;2023-04-02T01:02:38;96838.97;;;14.06;61.06
32456;BME280;18912;43.270;27.942;2023-04-02T01:08:06;96849.53;;;13.71;62.45
32456;BME280;18912;43.270;27.942;2023-04-02T01:11:11;96848.00;;;13.80;61.77
32456;BME280;18912;43.270;27.942;2023-04-02T01:14:30;96861.38;;;14.23;60.23
32456;BME280;18912;43.270;27.942;2023-04-02T01:21:40;96836.00;;;13.76;61.64
32456;BME280;18912;43.270;27.942;2023-04-02T01:24:12;96845.53;;;13.78;61.75
32456;BME280;18912;43.270;27.942;2023-04-02T01:29:14;96818.09;;;13.48;62.52
32456;BME280;18912;43.270;27.942;2023-04-02T01:31:41;96836.94;;;13.60;61.99
32456;BME280;18912;43.270;27.942;2023-04-02T01:34:12;96834.69;;;13.78;61.56
32456;BME280;18912;43.270;27.942;2023-04-02T01:36:46;96835.63;;;13.94;61.04
32456;BME280;18912;43.270;27.942;2023-04-02T01:44:51;96829.50;;;14.08;60.94
32456;BME280;18912;43.270;27.942;2023-04-02T01:47:21;96835.16;;;13.75;61.36
32456;BME280;18912;43.270;27.942;2023-04-02T01:49:46;96842.22;;;14.03;60.92
32456;BME280;18912;43.270;27.942;2023-04-02T01:52:18;96833.50;;;14.01;60.53
32456;BME280;18912;43.270;27.942;2023-04-02T01:54:50;96845.69;;;13.98;60.55
32456;BME280;18912;43.270;27.942;2023-04-02T01:57:16;96807.13;;;13.65;61.68
32456;BME280;18912;43.270;27.942;2023-04-02T01:59:43;96836.56;;;14.09;60.42
32456;BME280;18912;43.270;27.942;2023-04-02T02:02:10;96850.34;;;14.71;59.06
32456;BME280;18912;43.270;27.942;2023-04-02T02:04:36;96848.63;;;14.24;60.13
32456;BME280;18912;43.270;27.942;2023-04-02T02:07:02;96853.59;;;14.00;60.00
32456;BME280;18912;43.270;27.942;2023-04-02T02:09:33;96858.31;;;14.41;59.04
32456;BME280;18912;43.270;27.942;2023-04-02T02:12:01;96861.69;;;14.63;58.25
32456;BME280;18912;43.270;27.942;2023-04-02T02:14:29;96868.91;;;14.89;57.55
32456;BME280;18912;43.270;27.942;2023-04-02T02:16:57;96882.50;;;14.84;57.71
32456;BME280;18912;43.270;27.942;2023-04-02T02:19:27;96879.69;;;14.64;57.90
32456;BME280;18912;43.270;27.942;2023-04-02T02:22:30;96884.22;;;14.54;58.35
32456;BME280;18912;43.270;27.942;2023-04-02T02:24:59;96878.63;;;14.34;59.06
32456;BME280;18912;43.270;27.942;2023-04-02T02:32:52;96889.69;;;15.06;56.81
32456;BME280;18912;43.270;27.942;2023-04-02T02:35:29;96888.50;;;14.86;56.93
32456;BME280;18912;43.270;27.942;2023-04-02T02:40:47;96903.38;;;15.26;56.34
32456;BME280;18912;43.270;27.942;2023-04-02T02:43:16;96897.91;;;15.16;55.63
32456;BME280;18912;43.270;27.942;2023-04-02T02:45:42;96902.13;;;15.48;54.83
32456;BME280;18912;43.270;27.942;2023-04-02T02:48:12;96905.72;;;15.02;56.56
32456;BME280;18912;43.270;27.942;2023-04-02T02:50:40;96907.56;;;15.43;55.53
32456;BME280;18912;43.270;27.942;2023-04-02T02:53:15;96907.38;;;15.75;54.35
32456;BME280;18912;43.270;27.942;2023-04-02T02:55:42;96913.19;;;15.27;55.83
32456;BME280;18912;43.270;27.942;2023-04-02T02:58:12;96908.47;;;15.64;55.04
32456;BME280;18912;43.270;27.942;2023-04-02T03:00:41;96914.97;;;15.58;54.99
32456;BME280;18912;43.270;27.942;2023-04-02T03:03:10;96913.03;;;15.48;55.34
32456;BME280;18912;43.270;27.942;2023-04-02T03:05:39;96908.47;;;15.07;56.63
32456;BME280;18912;43.270;27.942;2023-04-02T03:08:11;96908.31;;;15.34;55.51
32456;BME280;18912;43.270;27.942;2023-04-02T03:10:43;96904.47;;;15.25;55.68
32456;BME280;18912;43.270;27.942;2023-04-02T03:13:15;96899.69;;;14.95;56.54
32456;BME280;18912;43.270;27.942;2023-04-02T03:15:56;96895.84;;;14.86;56.57
32456;BME280;18912;43.270;27.942;2023-04-02T03:21:12;96898.88;;;14.94;57.07
32456;BME280;18912;43.270;27.942;2023-04-02T03:23:42;96888.69;;;15.27;55.88
32456;BME280;18912;43.270;27.942;2023-04-02T03:26:17;96891.44;;;15.32;56.09
32456;BME280;18912;43.270;27.942;2023-04-02T03:28:56;96894.53;;;14.52;58.48
32456;BME280;18912;43.270;27.942;2023-04-02T03:31:30;96897.50;;;14.50;58.78
32456;BME280;18912;43.270;27.942;2023-04-02T03:33:58;96906.44;;;14.87;57.85
32456;BME280;18912;43.270;27.942;2023-04-02T03:36:27;96913.06;;;15.02;57.34
32456;BME280;18912;43.270;27.942;2023-04-02T03:39:21;96912.28;;;15.06;57.53
32456;BME280;18912;43.270;27.942;2023-04-02T03:41:53;96909.34;;;14.71;58.02
32456;BME280;18912;43.270;27.942;2023-04-02T03:46:50;96903.81;;;15.02;57.26
32456;BME280;18912;43.270;27.942;2023-04-02T03:49:25;96905.88;;;14.85;58.39
32456;BME280;18912;43.270;27.942;2023-04-02T03:52:09;96903.28;;;15.01;57.69
32456;BME280;18912;43.270;27.942;2023-04-02T03:54:37;96907.03;;;15.41;56.24
32456;BME280;18912;43.270;27.942;2023-04-02T03:57:03;96909.03;;;15.09;57.07
32456;BME280;18912;43.270;27.942;2023-04-02T03:59:44;96895.97;;;15.11;56.55
32456;BME280;18912;43.270;27.942;2023-04-02T04:02:53;96903.25;;;14.95;56.96
32456;BME280;18912;43.270;27.942;2023-04-02T04:05:22;96903.84;;;15.08;57.06
32456;BME280;18912;43.270;27.942;2023-04-02T04:07:51;96901.47;;;14.74;57.93
32456;BME280;18912;43.270;27.942;2023-04-02T04:10:22;96911.88;;;14.87;57.32
32456;BME280;18912;43.270;27.942;2023-04-02T04:12:51;96907.75;;;14.38;58.62
32456;BME280;18912;43.270;27.942;2023-04-02T04:15:37;96905.28;;;14.73;57.80
32456;BME280;18912;43.270;27.942;2023-04-02T04:21:00;96911.19;;;15.02;56.91
32456;BME280;18912;43.270;27.942;2023-04-02T04:23:31;96920.88;;;15.35;56.14
32456;BME280;18912;43.270;27.942;2023-04-02T04:29:00;96914.81;;;15.23;56.01
32456;BME280;18912;43.270;27.942;2023-04-02T04:31:44;96903.16;;;15.32;55.63
32456;BME280;18912;43.270;27.942;2023-04-02T04:34:35;96921.72;;;15.40;55.81
32456;BME280;18912;43.270;27.942;2023-04-02T04:37:17;96916.38;;;15.09;56.12
32456;BME280;18912;43.270;27.942;2023-04-02T04:40:04;96917.47;;;15.08;56.56
32456;BME280;18912;43.270;27.942;2023-04-02T04:42:35;96926.59;;;15.38;55.64
32456;BME280;18912;43.270;27.942;2023-04-02T04:45:11;96924.66;;;15.39;55.61
32456;BME280;18912;43.270;27.942;2023-04-02T04:47:46;96930.00;;;15.70;55.27
32456;BME280;18912;43.270;27.942;2023-04-02T04:52:55;96936.94;;;16.33;53.40
32456;BME280;18912;43.270;27.942;2023-04-02T04:55:38;96942.38;;;16.28;53.24
32456;BME280;18912;43.270;27.942;2023-04-02T04:58:26;96954.28;;;15.92;54.35
32456;BME280;18912;43.270;27.942;2023-04-02T05:06:24;96963.41;;;16.83;51.82
32456;BME280;18912;43.270;27.942;2023-04-02T05:09:00;96967.50;;;16.60;52.24
32456;BME280;18912;43.270;27.942;2023-04-02T05:11:36;96968.59;;;16.85;52.21
32456;BME280;18912;43.270;27.942;2023-04-02T05:14:15;96965.84;;;16.95;52.09
32456;BME280;18912;43.270;27.942;2023-04-02T05:16:52;96969.94;;;16.87;52.29
32456;BME280;18912;43.270;27.942;2023-04-02T05:19:27;96978.66;;;16.44;52.91
32456;BME280;18912;43.270;27.942;2023-04-02T05:22:02;96980.31;;;16.45;52.94
32456;BME280;18912;43.270;27.942;2023-04-02T05:27:43;96974.53;;;16.21;53.74
32456;BME280;18912;43.270;27.942;2023-04-02T05:30:37;96967.47;;;16.40;53.46
32456;BME280;18912;43.270;27.942;2023-04-02T05:33:55;96974.47;;;15.91;54.67
32456;BME280;18912;43.270;27.942;2023-04-02T05:36:07;96985.97;;;16.13;54.46
32456;BME280;18912;43.270;27.942;2023-04-02T05:38:39;96968.53;;;16.24;54.14
32456;BME280;18912;43.270;27.942;2023-04-02T05:41:25;96987.91;;;16.13;54.61
32456;BME280;18912;43.270;27.942;2023-04-02T05:44:05;96988.66;;;15.98;54.56
32456;BME280;18912;43.270;27.942;2023-04-02T05:46:36;96994.19;;;16.43;53.51
32456;BME280;18912;43.270;27.942;2023-04-02T05:49:13;96994.69;;;16.10;53.53
32456;BME280;18912;43.270;27.942;2023-04-02T05:51:44;97006.53;;;17.11;51.83
32456;BME280;18912;43.270;27.942;2023-04-02T05:54:25;97005.59;;;17.46;51.01
32456;BME280;18912;43.270;27.942;2023-04-02T05:56:56;97000.91;;;17.82;50.51
32456;BME280;18912;43.270;27.942;2023-04-02T05:59:28;97000.72;;;17.48;50.64
32456;BME280;18912;43.270;27.942;2023-04-02T06:02:03;97005.66;;;17.51;50.95
32456;BME280;18912;43.270;27.942;2023-04-02T06:04:55;97012.22;;;17.40;51.23
32456;BME280;18912;43.270;27.942;2023-04-02T06:07:28;97007.47;;;17.70;50.72
32456;BME280;18912;43.270;27.942;2023-04-02T06:10:09;97021.84;;;18.01;49.98
32456;BME280;18912;43.270;27.942;2023-04-02T06:12:43;97021.47;;;17.39;50.65
32456;BME280;18912;43.270;27.942;2023-04-02T06:15:13;97025.06;;;18.13;49.54
32456;BME280;18912;43.270;27.942;2023-04-02T06:17:56;97027.91;;;17.88;50.02
32456;BME280;18912;43.270;27.942;2023-04-02T06:20:23;97027.50;;;19.02;48.56
32456;BME280;18912;43.270;27.942;2023-04-02T06:22:59;97021.13;;;18.78;48.14
32456;BME280;18912;43.270;27.942;2023-04-02T06:25:30;97013.78;;;18.74;48.17
32456;BME280;18912;43.270;27.942;2023-04-02T06:27:57;97014.63;;;19.03;47.68
32456;BME280;18912;43.270;27.942;2023-04-02T06:30:28;97014.31;;;19.38;46.67
32456;BME280;18912;43.270;27.942;2023-04-02T06:32:55;97010.09;;;19.17;47.16
32456;BME280;18912;43.270;27.942;2023-04-02T06:35:21;96998.38;;;19.45;46.64
32456;BME280;18912;43.270;27.942;2023-04-02T06:37:49;97015.28;;;19.99;46.12
32456;BME280;18912;43.270;27.942;2023-04-02T06:40:43;97004.31;;;19.99;45.36
32456;BME280;18912;43.270;27.942;2023-04-02T06:45:47;97003.63;;;19.89;45.64
32456;BME280;18912;43.270;27.942;2023-04-02T06:48:18;97008.91;;;20.27;44.92
32456;BME280;18912;43.270;27.942;2023-04-02T06:50:48;97015.00;;;19.77;45.05
32456;BME280;18912;43.270;27.942;2023-04-02T06:53:27;97019.59;;;19.58;45.38
32456;BME280;18912;43.270;27.942;2023-04-02T06:56:16;97030.53;;;20.29;44.55
32456;BME280;18912;43.270;27.942;2023-04-02T06:58:43;97025.78;;;19.69;45.40
32456;BME280;18912;43.270;27.942;2023-04-02T07:01:16;97047.63;;;19.79;45.17
32456;BME280;18912;43.270;27.942;2023-04-02T07:03:42;97041.97;;;19.41;45.88
32456;BME280;18912;43.270;27.942;2023-04-02T07:06:17;97042.78;;;19.42;45.94
32456;BME280;18912;43.270;27.942;2023-04-02T07:08:42;97052.09;;;19.93;45.81
32456;BME280;18912;43.270;27.942;2023-04-02T07:11:14;97052.06;;;19.98;45.67
32456;BME280;18912;43.270;27.942;2023-04-02T07:13:41;97062.06;;;20.08;45.83
32456;BME280;18912;43.270;27.942;2023-04-02T07:16:13;97058.13;;;20.80;44.10
32456;BME280;18912;43.270;27.942;2023-04-02T07:18:40;97054.91;;;20.73;44.10
32456;BME280;18912;43.270;27.942;2023-04-02T07:21:06;97043.94;;;20.91;43.98
32456;BME280;18912;43.270;27.942;2023-04-02T07:23:32;97047.41;;;20.60;44.05
32456;BME280;18912;43.270;27.942;2023-04-02T07:25:57;97031.81;;;20.92;43.00
32456;BME280;18912;43.270;27.942;2023-04-02T07:28:24;97034.34;;;20.33;44.27
32456;BME280;18912;43.270;27.942;2023-04-02T07:30:50;97045.25;;;20.38;44.96
32456;BME280;18912;43.270;27.942;2023-04-02T07:33:20;97047.19;;;20.56;44.08
32456;BME280;18912;43.270;27.942;2023-04-02T07:35:46;97055.66;;;20.97;43.85
32456;BME280;18912;43.270;27.942;2023-04-02T07:38:12;97037.59;;;20.91;43.64
32456;BME280;18912;43.270;27.942;2023-04-02T07:40:38;97052.00;;;21.52;43.14
32456;BME280;18912;43.270;27.942;2023-04-02T07:43:04;97048.00;;;21.12;42.90
32456;BME280;18912;43.270;27.942;2023-04-02T07:45:31;97054.59;;;20.93;43.27
32456;BME280;18912;43.270;27.942;2023-04-02T07:47:57;97060.53;;;21.18;43.46
32456;BME280;18912;43.270;27.942;2023-04-02T07:50:23;97067.66;;;21.19;43.44
32456;BME280;18912;43.270;27.942;2023-04-02T07:52:48;97069.88;;;20.80;44.17
32456;BME280;18912;43.270;27.942;2023-04-02T07:55:15;97076.13;;;20.86;44.40
32456;BME280;18912;43.270;27.942;2023-04-02T08:00:13;97069.81;;;21.55;43.72
32456;BME280;18912;43.270;27.942;2023-04-02T08:02:39;97081.06;;;21.07;44.50
32456;BME280;18912;43.270;27.942;2023-04-02T08:05:05;97076.13;;;21.23;43.82
32456;BME280;18912;43.270;27.942;2023-04-02T08:07:32;97090.88;;;19.82;46.30
32456;BME280;18912;43.270;27.942;2023-04-02T08:09:58;97085.22;;;19.97;46.91
32456;BME280;18912;43.270;27.942;2023-04-02T08:12:24;97090.47;;;19.98;46.96
32456;BME280;18912;43.270;27.942;2023-04-02T08:14:49;97098.34;;;19.76;46.75
32456;BME280;18912;43.270;27.942;2023-04-02T08:17:15;97096.66;;;19.80;47.15
32456;BME280;18912;43.270;27.942;2023-04-02T08:19:40;97099.19;;;20.00;46.72
32456;BME280;18912;43.270;27.942;2023-04-02T08:22:06;97098.81;;;19.83;47.23
32456;BME280;18912;43.270;27.942;2023-04-02T08:24:32;97090.50;;;19.36;48.18
32456;BME280;18912;43.270;27.942;2023-04-02T08:26:57;97101.84;;;19.58;47.81
32456;BME280;18912;43.270;27.942;2023-04-02T08:29:23;97088.88;;;19.35;47.61
32456;BME280;18912;43.270;27.942;2023-04-02T08:31:48;97098.94;;;19.44;47.66
32456;BME280;18912;43.270;27.942;2023-04-02T08:34:14;97101.53;;;20.35;47.12
32456;BME280;18912;43.270;27.942;2023-04-02T08:36:42;97108.09;;;20.39;46.80
32456;BME280;18912;43.270;27.942;2023-04-02T08:39:08;97101.53;;;20.59;45.59
32456;BME280;18912;43.270;27.942;2023-04-02T08:42:03;97111.69;;;21.33;45.17
32456;BME280;18912;43.270;27.942;2023-04-02T08:44:38;97098.84;;;21.28;44.30
32456;BME280;18912;43.270;27.942;2023-04-02T08:47:07;97113.47;;;20.87;44.50
32456;BME280;18912;43.270;27.942;2023-04-02T08:49:38;97117.63;;;21.40;43.97
32456;BME280;18912;43.270;27.942;2023-04-02T08:52:04;97123.66;;;21.05;44.43
32456;BME280;18912;43.270;27.942;2023-04-02T08:54:33;97125.75;;;21.13;44.00
32456;BME280;18912;43.270;27.942;2023-04-02T08:59:41;97137.69;;;21.22;44.12
32456;BME280;18912;43.270;27.942;2023-04-02T09:04:41;97141.69;;;20.50;45.14
32456;BME280;18912;43.270;27.942;2023-04-02T09:07:12;97145.94;;;20.14;45.54
32456;BME280;18912;43.270;27.942;2023-04-02T09:09:38;97131.66;;;20.64;44.55
32456;BME280;18912;43.270;27.942;2023-04-02T09:12:10;97144.75;;;20.48;45.35
32456;BME280;18912;43.270;27.942;2023-04-02T09:17:39;97145.59;;;20.86;44.88
32456;BME280;18912;43.270;27.942;2023-04-02T09:20:24;97154.59;;;20.92;44.68
32456;BME280;18912;43.270;27.942;2023-04-02T09:22:50;97161.31;;;20.38;45.50
32456;BME280;18912;43.270;27.942;2023-04-02T09:25:26;97162.09;;;20.20;46.00
32456;BME280;18912;43.270;27.942;2023-04-02T09:27:54;97158.53;;;19.63;46.70
32456;BME280;18912;43.270;27.942;2023-04-02T09:32:57;97169.41;;;19.39;47.44
32456;BME280;18912;43.270;27.942;2023-04-02T09:35:31;97162.13;;;20.15;46.04
32456;BME280;18912;43.270;27.942;2023-04-02T09:43:20;97166.50;;;20.16;46.44
32456;BME280;18912;43.270;27.942;2023-04-02T09:48:25;97170.75;;;20.32;45.83
32456;BME280;18912;43.270;27.942;2023-04-02T09:51:11;97170.44;;;20.34;45.89
32456;BME280;18912;43.270;27.942;2023-04-02T09:53:45;97179.09;;;20.22;45.80
32456;BME280;18912;43.270;27.942;2023-04-02T09:56:21;97174.44;;;20.23;46.14
32456;BME280;18912;43.270;27.942;2023-04-02T09:59:05;97174.59;;;20.55;45.71
32456;BME280;18912;43.270;27.942;2023-04-02T10:01:32;97171.31;;;20.01;46.73
32456;BME280;18912;43.270;27.942;2023-04-02T10:03:58;97169.44;;;20.48;45.84
32456;BME280;18912;43.270;27.942;2023-04-02T10:06:25;97169.03;;;20.08;45.87
32456;BME280;18912;43.270;27.942;2023-04-02T10:08:52;97174.50;;;20.13;46.80
32456;BME280;18912;43.270;27.942;2023-04-02T10:11:33;97186.16;;;20.52;45.28
32456;BME280;18912;43.270;27.942;2023-04-02T10:14:05;97182.28;;;20.29;45.96
32456;BME280;18912;43.270;27.942;2023-04-02T10:16:48;97189.38;;;20.35;46.13
32456;BME280;18912;43.270;27.942;2023-04-02T10:19:37;97191.69;;;20.23;46.09
32456;BME280;18912;43.270;27.942;2023-04-02T10:22:16;97182.88;;;20.26;45.88
32456;BME280;18912;43.270;27.942;2023-04-02T10:24:42;97188.69;;;19.91;46.98
32456;BME280;18912;43.270;27.942;2023-04-02T10:32:59;97203.34;;;20.63;45.68
32456;BME280;18912;43.270;27.942;2023-04-02T10:46:17;97219.72;;;20.68;45.71
32456;BME280;18912;43.270;27.942;2023-04-02T10:51:50;97220.00;;;21.13;44.59
32456;BME280;18912;43.270;27.942;2023-04-02T10:54:30;97227.19;;;20.86;44.66
32456;BME280;18912;43.270;27.942;2023-04-02T11:03:05;97232.47;;;21.24;43.63
32456;BME280;18912;43.270;27.942;2023-04-02T11:05:42;97225.84;;;22.13;43.06
32456;BME280;18912;43.270;27.942;2023-04-02T11:11:24;97230.84;;;22.11;42.72
32456;BME280;18912;43.270;27.942;2023-04-02T11:13:54;97228.13;;;21.93;42.87
32456;BME280;18912;43.270;27.942;2023-04-02T11:16:22;97226.31;;;21.14;44.02
32456;BME280;18912;43.270;27.942;2023-04-02T11:29:40;97226.59;;;21.87;42.54
32456;BME280;18912;43.270;27.942;2023-04-02T11:37:41;97235.13;;;22.17;41.67
32456;BME280;18912;43.270;27.942;2023-04-02T11:42:42;97241.25;;;22.87;40.59
32456;BME280;18912;43.270;27.942;2023-04-02T11:50:36;97237.28;;;23.56;40.99
32456;BME280;18912;43.270;27.942;2023-04-02T12:10:20;97244.84;;;23.86;39.09
32456;BME280;18912;43.270;27.942;2023-04-02T12:12:47;97251.50;;;24.30;39.23
32456;BME280;18912;43.270;27.942;2023-04-02T12:17:51;97263.56;;;24.95;38.32
32456;BME280;18912;43.270;27.942;2023-04-02T12:20:21;97261.06;;;24.85;37.91
32456;BME280;18912;43.270;27.942;2023-04-02T12:22:55;97256.06;;;24.26;39.21
32456;BME280;18912;43.270;27.942;2023-04-02T12:25:27;97255.69;;;24.80;39.13
32456;BME280;18912;43.270;27.942;2023-04-02T12:28:15;97253.34;;;25.69;38.29
32456;BME280;18912;43.270;27.942;2023-04-02T12:30:45;97256.53;;;24.80;38.58
32456;BME280;18912;43.270;27.942;2023-04-02T12:33:32;97257.97;;;25.26;38.06
32456;BME280;18912;43.270;27.942;2023-04-02T12:36:03;97261.47;;;24.39;38.47
32456;BME280;18912;43.270;27.942;2023-04-02T12:38:34;97259.00;;;24.29;38.69
32456;BME280;18912;43.270;27.942;2023-04-02T12:41:04;97265.03;;;23.95;39.43
32456;BME280;18912;43.270;27.942;2023-04-02T12:43:34;97250.13;;;23.74;39.59
32456;BME280;18912;43.270;27.942;2023-04-02T12:46:07;97264.25;;;24.17;39.12
32456;BME280;18912;43.270;27.942;2023-04-02T12:48:34;97265.53;;;23.97;39.75
32456;BME280;18912;43.270;27.942;2023-04-02T12:51:01;97261.47;;;24.08;39.15
32456;BME280;18912;43.270;27.942;2023-04-02T12:53:34;97266.88;;;23.15;39.41
32456;BME280;18912;43.270;27.942;2023-04-02T12:56:00;97264.38;;;23.54;40.16
32456;BME280;18912;43.270;27.942;2023-04-02T12:58:38;97266.13;;;23.50;40.03
32456;BME280;18912;43.270;27.942;2023-04-02T13:03:40;97265.84;;;23.74;39.73
32456;BME280;18912;43.270;27.942;2023-04-02T13:06:35;97271.84;;;24.12;39.88
32456;BME280;18912;43.270;27.942;2023-04-02T13:09:03;97272.75;;;23.85;39.68
32456;BME280;18912;43.270;27.942;2023-04-02T13:11:39;97256.16;;;23.76;39.60
32456;BME280;18912;43.270;27.942;2023-04-02T13:14:17;97270.16;;;24.02;38.99
32456;BME280;18912;43.270;27.942;2023-04-02T13:16:44;97274.50;;;23.81;39.02
32456;BME280;18912;43.270;27.942;2023-04-02T13:19:30;97274.81;;;23.79;39.57
32456;BME280;18912;43.270;27.942;2023-04-02T13:21:58;97270.44;;;24.14;39.26
32456;BME280;18912;43.270;27.942;2023-04-02T13:24:33;97271.84;;;24.12;38.87
32456;BME280;18912;43.270;27.942;2023-04-02T13:27:00;97266.03;;;23.99;39.41
32456;BME280;18912;43.270;27.942;2023-04-02T13:29:34;97256.94;;;24.43;38.34
32456;BME280;18912;43.270;27.942;2023-04-02T13:32:06;97255.69;;;24.49;38.16
32456;BME280;18912;43.270;27.942;2023-04-02T13:34:36;97255.22;;;24.03;38.49
32456;BME280;18912;43.270;27.942;2023-04-02T13:37:01;97255.66;;;24.19;38.33
32456;BME280;18912;43.270;27.942;2023-04-02T13:39:27;97259.63;;;24.04;39.07
32456;BME280;18912;43.270;27.942;2023-04-02T13:42:01;97250.47;;;24.17;38.54
32456;BME280;18912;43.270;27.942;2023-04-02T13:44:29;97252.78;;;24.24;39.34
32456;BME280;18912;43.270;27.942;2023-04-02T13:46:56;97254.72;;;24.01;39.10
32456;BME280;18912;43.270;27.942;2023-04-02T13:49:23;97250.53;;;24.26;38.74
32456;BME280;18912;43.270;27.942;2023-04-02T13:51:51;97251.28;;;24.18;38.56
32456;BME280;18912;43.270;27.942;2023-04-02T13:54:25;97250.47;;;24.17;38.42
32456;BME280;18912;43.270;27.942;2023-04-02T13:56:54;97257.66;;;24.27;38.29
32456;BME280;18912;43.270;27.942;2023-04-02T13:59:20;97258.94;;;24.51;37.87
32456;BME280;18912;43.270;27.942;2023-04-02T14:01:46;97257.75;;;24.13;38.17
32456;BME280;18912;43.270;27.942;2023-04-02T14:04:16;97254.59;;;24.28;38.01
32456;BME280;18912;43.270;27.942;2023-04-02T14:18:17;97256.47;;;23.61;38.96
32456;BME280;18912;43.270;27.942;2023-04-02T14:21:10;97253.44;;;23.85;38.26
32456;BME280;18912;43.270;27.942;2023-04-02T14:26:54;97253.72;;;22.71;39.35
32456;BME280;18912;43.270;27.942;2023-04-02T14:29:30;97255.94;;;23.37;39.07
32456;BME280;18912;43.270;27.942;2023-04-02T14:37:44;97271.69;;;23.72;38.52
32456;BME280;18912;43.270;27.942;2023-04-02T14:43:24;97259.59;;;23.46;39.06
32456;BME280;18912;43.270;27.942;2023-04-02T14:46:03;97265.47;;;23.04;39.46
32456;BME280;18912;43.270;27.942;2023-04-02T14:48:49;97267.63;;;23.56;39.17
32456;BME280;18912;43.270;27.942;2023-04-02T14:54:37;97264.34;;;23.90;38.99
32456;BME280;18912;43.270;27.942;2023-04-02T14:57:22;97272.41;;;24.22;38.31
32456;BME280;18912;43.270;27.942;2023-04-02T15:00:03;97265.94;;;24.27;38.69
32456;BME280;18912;43.270;27.942;2023-04-02T15:10:27;97268.72;;;24.04;37.71
32456;BME280;18912;43.270;27.942;2023-04-02T15:12:57;97273.00;;;24.11;37.65
32456;BME280;18912;43.270;27.942;2023-04-02T15:15:48;97265.66;;;24.06;37.77
32456;BME280;18912;43.270;27.942;2023-04-02T15:18:17;97264.28;;;23.81;38.04
32456;BME280;18912;43.270;27.942;2023-04-02T15:23:37;97271.59;;;23.64;38.33
32456;BME280;18912;43.270;27.942;2023-04-02T15:31:39;97283.81;;;23.49;39.01
32456;BME280;18912;43.270;27.942;2023-04-02T15:40:01;97300.16;;;23.32;39.40
32456;BME280;18912;43.270;27.942;2023-04-02T15:42:37;97307.19;;;23.25;40.08
32456;BME280;18912;43.270;27.942;2023-04-02T15:53:38;97308.53;;;23.00;40.08
32456;BME280;18912;43.270;27.942;2023-04-02T16:05:02;97307.88;;;22.76;40.98
32456;BME280;18912;43.270;27.942;2023-04-02T16:10:30;97313.50;;;22.39;42.35
32456;BME280;18912;43.270;27.942;2023-04-02T16:12:57;97323.56;;;22.29;42.26
32456;BME280;18912;43.270;27.942;2023-04-02T16:15:34;97326.06;;;22.12;42.47
32456;BME280;18912;43.270;27.942;2023-04-02T16:18:05;97327.91;;;21.98;43.00
32456;BME280;18912;43.270;27.942;2023-04-02T16:20:36;97328.78;;;21.75;43.53
32456;BME280;18912;43.270;27.942;2023-04-02T16:23:12;97323.66;;;21.50;44.03
32456;BME280;18912;43.270;27.942;2023-04-02T16:25:53;97332.78;;;21.27;44.33
32456;BME280;18912;43.270;27.942;2023-04-02T16:28:32;97321.28;;;20.96;44.42
32456;BME280;18912;43.270;27.942;2023-04-02T16:31:13;97321.28;;;20.96;44.43
32456;BME280;18912;43.270;27.942;2023-04-02T16:42:35;97338.72;;;20.29;45.33
32456;BME280;18912;43.270;27.942;2023-04-02T16:48:08;97344.31;;;20.14;45.44
32456;BME280;18912;43.270;27.942;2023-04-02T16:56:07;97350.88;;;19.21;46.78
32456;BME280;18912;43.270;27.942;2023-04-02T16:58:53;97357.75;;;19.13;46.09
32456;BME280;18912;43.270;27.942;2023-04-02T17:04:23;97358.16;;;18.77;46.03
32456;BME280;18912;43.270;27.942;2023-04-02T17:09:50;97363.63;;;18.41;46.31
32456;BME280;18912;43.270;27.942;2023-04-02T17:12:29;97366.38;;;18.31;46.69
32456;BME280;18912;43.270;27.942;2023-04-02T17:17:36;97366.66;;;17.95;47.17
32456;BME280;18912;43.270;27.942;2023-04-02T17:20:13;97377.25;;;17.76;47.76
32456;BME280;18912;43.270;27.942;2023-04-02T17:22:41;97382.72;;;17.66;47.77
32456;BME280;18912;43.270;27.942;2023-04-02T17:25:15;97379.94;;;17.56;47.26
32456;BME280;18912;43.270;27.942;2023-04-02T17:27:46;97387.34;;;17.60;46.94